NCAR-RAP Real-Time Weather Data

Output produced by METARs form (24 April 2018  16:26 UTC)
found at http://weather.rap.ucar.edu/surface/
 
RJCM 241100Z 21004KT 9999 FEW060 BKN/// 09/02 Q1016
RJCM 241000Z 17003KT 130V200 9999 FEW060 BKN/// 10/00 Q1016
RJCM 240900Z 15005KT 9999 FEW060 BKN/// 12/00 Q1015
RJCM 240800Z 15008KT 9999 FEW060 BKN/// 14/M00 Q1015
RJCM 240700Z 14007KT 9999 FEW060 BKN/// 15/M01 Q1015
RJCM 240600Z 17010KT 9999 FEW050 BKN/// 16/M00 Q1015
RJCM 240500Z 18012KT 9999 FEW050 BKN/// 16/M01 Q1016
RJCM 240400Z 16012KT 9999 FEW040 BKN/// 15/M00 Q1017
RJCM 240300Z 20012KT 9999 FEW040 BKN/// 15/00 Q1018
RJCM 240200Z 21011KT 180V250 9999 FEW030 BKN/// 15/M00 Q1019
RJCM 240100Z 23010KT 190V270 9999 FEW030 BKN/// 14/M00 Q1020
RJCM 240000Z 22011KT 180V260 9999 FEW020 BKN/// 13/M01 Q1020
RJCM 232300Z 22008KT 190V260 9999 FEW015 BKN/// 10/M00 Q1021
RJCM 232245Z 22007KT 9999 FEW015 BKN/// 09/01 Q1021 RMK 1ST015 A3017
RJCM 231100Z VRB02KT CAVOK 05/M03 Q1025
RJCM 231000Z 05004KT CAVOK 06/M04 Q1025
RJCM 230900Z 07003KT CAVOK 08/M03 Q1025
RJCM 230800Z 09006KT CAVOK 09/M03 Q1024
RJCM 230700Z 08008KT 050V110 CAVOK 10/M04 Q1024
RJCM 230600Z 06010KT CAVOK 11/M03 Q1024
RJCM 230500Z 36012KT 9999 FEW060 11/M04 Q1024
RJCM 230400Z 01015KT 9999 FEW050 12/M05 Q1024
RJCM 230300Z 01019KT 9999 FEW050 11/M05 Q1024
RJCM 230200Z 01017KT 9999 FEW050 12/M02 Q1024
RJCM 230100Z VRB03KT 9999 FEW040 SCT060 12/M04 Q1024
RJCM 230000Z 20004KT 150V270 9999 FEW040 11/01 Q1025
RJCM 222300Z 21007KT 190V250 9999 FEW040 07/01 Q1025
RJCM 222245Z 21006KT 9999 FEW040 07/01 Q1025 RMK 1CU040 A3029
RJCM 221100Z 11004KT 9999 FEW040 SCT060 BKN080 01/M02 Q1024
RJCM 221000Z 08002KT 9999 FEW040 BKN060 02/M02 Q1023
RJCM 220900Z 08005KT 9999 FEW050 04/M02 Q1023
RJCM 220800Z 07004KT 040V110 9999 FEW030 05/M02 Q1022
RJCM 220700Z 06006KT 030V100 9999 FEW020 05/M01 Q1022
RJCM 220600Z 05008KT 020V090 9999 FEW020 SCT030 05/M01 Q1021
RJCM 220500Z 06007KT 020V090 9999 FEW020 SCT030 BKN/// 06/M01 Q1021